sensor_id;sensor_type;location;lat;lon;timestamp;P1;durP1;ratioP1;P2;durP2;ratioP2
46551;SDS011;32278;51.810;4.712;2022-10-31T00:01:08;11.85;;;6.35;;
46551;SDS011;32278;51.810;4.712;2022-10-31T00:03:36;13.52;;;5.97;;
46551;SDS011;32278;51.810;4.712;2022-10-31T00:06:01;11.48;;;6.10;;
46551;SDS011;32278;51.810;4.712;2022-10-31T00:08:27;15.93;;;6.18;;
46551;SDS011;32278;51.810;4.712;2022-10-31T00:10:52;16.15;;;6.82;;
46551;SDS011;32278;51.810;4.712;2022-10-31T00:13:18;12.32;;;6.72;;
46551;SDS011;32278;51.810;4.712;2022-10-31T00:15:43;12.98;;;6.50;;
46551;SDS011;32278;51.810;4.712;2022-10-31T00:18:09;15.93;;;7.50;;
46551;SDS011;32278;51.810;4.712;2022-10-31T00:20:35;16.88;;;7.57;;
46551;SDS011;32278;51.810;4.712;2022-10-31T00:23:02;14.02;;;6.50;;
46551;SDS011;32278;51.810;4.712;2022-10-31T00:25:29;16.10;;;7.50;;
46551;SDS011;32278;51.810;4.712;2022-10-31T00:27:58;20.05;;;6.78;;
46551;SDS011;32278;51.810;4.712;2022-10-31T00:30:23;15.30;;;6.82;;
46551;SDS011;32278;51.810;4.712;2022-10-31T00:32:49;16.48;;;7.95;;
46551;SDS011;32278;51.810;4.712;2022-10-31T00:35:15;13.88;;;7.18;;
46551;SDS011;32278;51.810;4.712;2022-10-31T00:37:40;18.10;;;7.57;;
46551;SDS011;32278;51.810;4.712;2022-10-31T00:40:06;17.38;;;7.70;;
46551;SDS011;32278;51.810;4.712;2022-10-31T00:42:32;9.98;;;6.57;;
46551;SDS011;32278;51.810;4.712;2022-10-31T00:44:57;14.05;;;6.80;;
46551;SDS011;32278;51.810;4.712;2022-10-31T00:47:23;12.70;;;7.00;;
46551;SDS011;32278;51.810;4.712;2022-10-31T00:49:48;13.00;;;7.35;;
46551;SDS011;32278;51.810;4.712;2022-10-31T00:52:14;21.13;;;7.03;;
46551;SDS011;32278;51.810;4.712;2022-10-31T00:54:40;11.70;;;7.03;;
46551;SDS011;32278;51.810;4.712;2022-10-31T00:57:05;18.50;;;7.75;;
46551;SDS011;32278;51.810;4.712;2022-10-31T00:59:31;13.52;;;7.18;;
46551;SDS011;32278;51.810;4.712;2022-10-31T01:01:56;13.10;;;7.43;;
46551;SDS011;32278;51.810;4.712;2022-10-31T01:04:22;13.95;;;6.40;;
46551;SDS011;32278;51.810;4.712;2022-10-31T01:06:47;11.50;;;6.97;;
46551;SDS011;32278;51.810;4.712;2022-10-31T01:09:13;16.17;;;6.53;;
46551;SDS011;32278;51.810;4.712;2022-10-31T01:11:39;17.08;;;7.53;;
46551;SDS011;32278;51.810;4.712;2022-10-31T01:14:04;16.80;;;7.03;;
46551;SDS011;32278;51.810;4.712;2022-10-31T01:16:30;18.77;;;7.80;;
46551;SDS011;32278;51.810;4.712;2022-10-31T01:18:56;12.85;;;6.90;;
46551;SDS011;32278;51.810;4.712;2022-10-31T01:21:22;12.73;;;7.05;;
46551;SDS011;32278;51.810;4.712;2022-10-31T01:23:50;13.60;;;7.70;;
46551;SDS011;32278;51.810;4.712;2022-10-31T01:26:19;14.60;;;7.63;;
46551;SDS011;32278;51.810;4.712;2022-10-31T01:28:56;12.70;;;7.03;;
46551;SDS011;32278;51.810;4.712;2022-10-31T01:31:24;20.75;;;7.63;;
46551;SDS011;32278;51.810;4.712;2022-10-31T01:33:51;15.23;;;8.07;;
46551;SDS011;32278;51.810;4.712;2022-10-31T01:36:21;17.42;;;8.25;;
46551;SDS011;32278;51.810;4.712;2022-10-31T01:38:49;19.00;;;8.57;;
46551;SDS011;32278;51.810;4.712;2022-10-31T01:41:17;18.05;;;8.65;;
46551;SDS011;32278;51.810;4.712;2022-10-31T01:46:24;19.42;;;7.78;;
46551;SDS011;32278;51.810;4.712;2022-10-31T01:48:52;14.43;;;8.32;;
46551;SDS011;32278;51.810;4.712;2022-10-31T01:51:20;13.82;;;7.55;;
46551;SDS011;32278;51.810;4.712;2022-10-31T01:53:50;15.15;;;8.10;;
46551;SDS011;32278;51.810;4.712;2022-10-31T01:56:19;22.90;;;7.25;;
46551;SDS011;32278;51.810;4.712;2022-10-31T01:58:45;12.98;;;7.53;;
46551;SDS011;32278;51.810;4.712;2022-10-31T02:01:11;13.73;;;7.78;;
46551;SDS011;32278;51.810;4.712;2022-10-31T02:03:39;14.90;;;8.45;;
46551;SDS011;32278;51.810;4.712;2022-10-31T02:06:06;17.50;;;8.45;;
46551;SDS011;32278;51.810;4.712;2022-10-31T02:08:38;18.33;;;8.10;;
46551;SDS011;32278;51.810;4.712;2022-10-31T02:11:05;14.13;;;8.10;;
46551;SDS011;32278;51.810;4.712;2022-10-31T02:13:32;14.20;;;7.65;;
46551;SDS011;32278;51.810;4.712;2022-10-31T02:15:59;17.25;;;8.57;;
46551;SDS011;32278;51.810;4.712;2022-10-31T02:18:26;17.95;;;8.32;;
46551;SDS011;32278;51.810;4.712;2022-10-31T02:29:24;16.42;;;8.68;;
46551;SDS011;32278;51.810;4.712;2022-10-31T02:34:37;14.25;;;8.48;;
46551;SDS011;32278;51.810;4.712;2022-10-31T02:37:32;13.13;;;7.60;;
46551;SDS011;32278;51.810;4.712;2022-10-31T02:42:50;13.95;;;8.13;;
46551;SDS011;32278;51.810;4.712;2022-10-31T02:47:48;19.60;;;9.52;;
46551;SDS011;32278;51.810;4.712;2022-10-31T02:50:22;13.05;;;7.75;;
46551;SDS011;32278;51.810;4.712;2022-10-31T02:53:02;14.77;;;8.15;;
46551;SDS011;32278;51.810;4.712;2022-10-31T02:57:54;19.33;;;8.88;;
46551;SDS011;32278;51.810;4.712;2022-10-31T03:00:24;18.33;;;9.93;;
46551;SDS011;32278;51.810;4.712;2022-10-31T03:08:24;16.38;;;9.25;;
46551;SDS011;32278;51.810;4.712;2022-10-31T03:11:09;21.33;;;10.00;;
46551;SDS011;32278;51.810;4.712;2022-10-31T03:16:18;25.20;;;11.45;;
46551;SDS011;32278;51.810;4.712;2022-10-31T03:19:09;20.15;;;10.52;;
46551;SDS011;32278;51.810;4.712;2022-10-31T03:24:09;21.77;;;11.02;;
46551;SDS011;32278;51.810;4.712;2022-10-31T03:26:37;25.67;;;11.60;;
46551;SDS011;32278;51.810;4.712;2022-10-31T03:29:13;23.80;;;10.52;;
46551;SDS011;32278;51.810;4.712;2022-10-31T03:31:46;21.77;;;11.50;;
46551;SDS011;32278;51.810;4.712;2022-10-31T03:34:19;21.38;;;11.20;;
46551;SDS011;32278;51.810;4.712;2022-10-31T03:36:46;27.83;;;11.70;;
46551;SDS011;32278;51.810;4.712;2022-10-31T03:39:16;19.17;;;10.98;;
46551;SDS011;32278;51.810;4.712;2022-10-31T03:41:46;21.85;;;11.57;;
46551;SDS011;32278;51.810;4.712;2022-10-31T03:44:16;19.95;;;11.40;;
46551;SDS011;32278;51.810;4.712;2022-10-31T03:46:46;20.15;;;11.38;;
46551;SDS011;32278;51.810;4.712;2022-10-31T03:49:11;28.40;;;10.82;;
46551;SDS011;32278;51.810;4.712;2022-10-31T03:57:23;21.08;;;10.55;;
46551;SDS011;32278;51.810;4.712;2022-10-31T03:59:35;18.15;;;11.27;;
46551;SDS011;32278;51.810;4.712;2022-10-31T04:02:10;22.73;;;10.55;;
46551;SDS011;32278;51.810;4.712;2022-10-31T04:04:39;23.63;;;12.35;;
46551;SDS011;32278;51.810;4.712;2022-10-31T04:07:06;23.60;;;11.40;;
46551;SDS011;32278;51.810;4.712;2022-10-31T04:09:35;19.05;;;10.85;;
46551;SDS011;32278;51.810;4.712;2022-10-31T04:12:03;23.23;;;11.63;;
46551;SDS011;32278;51.810;4.712;2022-10-31T04:14:33;22.95;;;11.13;;
46551;SDS011;32278;51.810;4.712;2022-10-31T04:17:03;21.80;;;11.23;;
46551;SDS011;32278;51.810;4.712;2022-10-31T04:19:33;22.58;;;11.75;;
46551;SDS011;32278;51.810;4.712;2022-10-31T04:21:58;21.63;;;11.77;;
46551;SDS011;32278;51.810;4.712;2022-10-31T04:24:24;21.65;;;10.68;;
46551;SDS011;32278;51.810;4.712;2022-10-31T04:26:50;24.45;;;11.88;;
46551;SDS011;32278;51.810;4.712;2022-10-31T04:29:15;22.58;;;11.02;;
46551;SDS011;32278;51.810;4.712;2022-10-31T04:31:41;20.45;;;11.75;;
46551;SDS011;32278;51.810;4.712;2022-10-31T04:34:06;22.80;;;12.93;;
46551;SDS011;32278;51.810;4.712;2022-10-31T04:36:32;22.73;;;11.48;;
46551;SDS011;32278;51.810;4.712;2022-10-31T04:38:58;21.90;;;11.07;;
46551;SDS011;32278;51.810;4.712;2022-10-31T04:41:23;21.00;;;11.50;;
46551;SDS011;32278;51.810;4.712;2022-10-31T04:43:49;21.73;;;11.07;;
46551;SDS011;32278;51.810;4.712;2022-10-31T04:46:14;25.85;;;11.55;;
46551;SDS011;32278;51.810;4.712;2022-10-31T04:48:40;22.20;;;12.27;;
46551;SDS011;32278;51.810;4.712;2022-10-31T04:51:06;20.83;;;11.70;;
46551;SDS011;32278;51.810;4.712;2022-10-31T04:53:31;24.45;;;13.07;;
46551;SDS011;32278;51.810;4.712;2022-10-31T04:55:58;22.00;;;11.25;;
46551;SDS011;32278;51.810;4.712;2022-10-31T04:58:25;23.35;;;12.20;;
46551;SDS011;32278;51.810;4.712;2022-10-31T05:00:55;21.67;;;12.38;;
46551;SDS011;32278;51.810;4.712;2022-10-31T05:03:21;24.23;;;13.25;;
46551;SDS011;32278;51.810;4.712;2022-10-31T05:05:47;24.15;;;12.80;;
46551;SDS011;32278;51.810;4.712;2022-10-31T05:08:13;27.80;;;12.68;;
46551;SDS011;32278;51.810;4.712;2022-10-31T05:10:39;22.88;;;12.88;;
46551;SDS011;32278;51.810;4.712;2022-10-31T05:13:05;26.95;;;13.38;;
46551;SDS011;32278;51.810;4.712;2022-10-31T05:15:30;26.33;;;12.73;;
46551;SDS011;32278;51.810;4.712;2022-10-31T05:17:57;25.02;;;12.90;;
46551;SDS011;32278;51.810;4.712;2022-10-31T05:20:27;30.75;;;13.57;;
46551;SDS011;32278;51.810;4.712;2022-10-31T05:22:54;21.60;;;11.90;;
46551;SDS011;32278;51.810;4.712;2022-10-31T05:25:22;26.25;;;13.15;;
46551;SDS011;32278;51.810;4.712;2022-10-31T05:27:49;24.02;;;12.98;;
46551;SDS011;32278;51.810;4.712;2022-10-31T05:30:17;35.15;;;12.98;;
46551;SDS011;32278;51.810;4.712;2022-10-31T05:32:45;24.30;;;11.38;;
46551;SDS011;32278;51.810;4.712;2022-10-31T05:35:14;33.55;;;14.65;;
46551;SDS011;32278;51.810;4.712;2022-10-31T05:37:41;27.42;;;12.80;;
46551;SDS011;32278;51.810;4.712;2022-10-31T05:40:08;23.83;;;11.95;;
46551;SDS011;32278;51.810;4.712;2022-10-31T05:42:35;25.35;;;12.95;;
46551;SDS011;32278;51.810;4.712;2022-10-31T05:45:03;21.27;;;11.48;;
46551;SDS011;32278;51.810;4.712;2022-10-31T05:47:28;22.80;;;12.05;;
46551;SDS011;32278;51.810;4.712;2022-10-31T05:49:54;26.38;;;12.63;;
46551;SDS011;32278;51.810;4.712;2022-10-31T05:52:20;23.63;;;12.80;;
46551;SDS011;32278;51.810;4.712;2022-10-31T05:54:45;26.38;;;12.88;;
46551;SDS011;32278;51.810;4.712;2022-10-31T05:57:11;29.25;;;12.80;;
46551;SDS011;32278;51.810;4.712;2022-10-31T05:59:36;27.20;;;12.63;;
46551;SDS011;32278;51.810;4.712;2022-10-31T06:02:03;28.05;;;13.43;;
46551;SDS011;32278;51.810;4.712;2022-10-31T06:04:29;29.05;;;13.63;;
46551;SDS011;32278;51.810;4.712;2022-10-31T06:06:55;29.52;;;11.95;;
46551;SDS011;32278;51.810;4.712;2022-10-31T06:09:21;25.38;;;12.10;;
46551;SDS011;32278;51.810;4.712;2022-10-31T06:11:47;21.48;;;12.23;;
46551;SDS011;32278;51.810;4.712;2022-10-31T06:14:13;26.08;;;13.48;;
46551;SDS011;32278;51.810;4.712;2022-10-31T06:16:38;24.65;;;12.10;;
46551;SDS011;32278;51.810;4.712;2022-10-31T06:19:04;28.52;;;12.75;;
46551;SDS011;32278;51.810;4.712;2022-10-31T06:21:29;24.05;;;12.18;;
46551;SDS011;32278;51.810;4.712;2022-10-31T06:23:55;28.50;;;12.20;;
46551;SDS011;32278;51.810;4.712;2022-10-31T06:26:20;30.10;;;11.95;;
46551;SDS011;32278;51.810;4.712;2022-10-31T06:28:46;22.42;;;12.18;;
46551;SDS011;32278;51.810;4.712;2022-10-31T06:31:11;24.08;;;12.75;;
46551;SDS011;32278;51.810;4.712;2022-10-31T06:33:37;24.50;;;11.90;;
46551;SDS011;32278;51.810;4.712;2022-10-31T06:36:03;28.00;;;11.98;;
46551;SDS011;32278;51.810;4.712;2022-10-31T06:38:29;23.92;;;10.88;;
46551;SDS011;32278;51.810;4.712;2022-10-31T06:40:54;30.02;;;12.10;;
46551;SDS011;32278;51.810;4.712;2022-10-31T06:43:20;24.83;;;12.60;;
46551;SDS011;32278;51.810;4.712;2022-10-31T06:45:46;25.55;;;12.13;;
46551;SDS011;32278;51.810;4.712;2022-10-31T06:48:12;30.35;;;12.85;;
46551;SDS011;32278;51.810;4.712;2022-10-31T06:50:38;24.40;;;11.43;;
46551;SDS011;32278;51.810;4.712;2022-10-31T06:53:03;26.40;;;12.70;;
46551;SDS011;32278;51.810;4.712;2022-10-31T06:55:29;25.67;;;12.07;;
46551;SDS011;32278;51.810;4.712;2022-10-31T06:57:55;25.00;;;12.02;;
46551;SDS011;32278;51.810;4.712;2022-10-31T07:00:23;21.83;;;11.77;;
46551;SDS011;32278;51.810;4.712;2022-10-31T07:02:53;25.77;;;11.45;;
46551;SDS011;32278;51.810;4.712;2022-10-31T07:05:19;23.10;;;11.98;;
46551;SDS011;32278;51.810;4.712;2022-10-31T07:07:44;26.80;;;13.13;;
46551;SDS011;32278;51.810;4.712;2022-10-31T07:10:10;23.35;;;12.43;;
46551;SDS011;32278;51.810;4.712;2022-10-31T07:12:36;23.70;;;11.50;;
46551;SDS011;32278;51.810;4.712;2022-10-31T07:15:01;22.55;;;11.65;;
46551;SDS011;32278;51.810;4.712;2022-10-31T07:17:27;23.23;;;13.10;;
46551;SDS011;32278;51.810;4.712;2022-10-31T07:19:52;22.80;;;12.90;;
46551;SDS011;32278;51.810;4.712;2022-10-31T07:22:18;27.30;;;13.77;;
46551;SDS011;32278;51.810;4.712;2022-10-31T07:24:43;28.27;;;14.65;;
46551;SDS011;32278;51.810;4.712;2022-10-31T07:27:09;31.02;;;13.98;;
46551;SDS011;32278;51.810;4.712;2022-10-31T07:29:35;30.67;;;13.65;;
46551;SDS011;32278;51.810;4.712;2022-10-31T07:32:00;37.45;;;14.57;;
46551;SDS011;32278;51.810;4.712;2022-10-31T07:34:26;31.83;;;14.77;;
46551;SDS011;32278;51.810;4.712;2022-10-31T07:36:52;42.28;;;15.43;;
46551;SDS011;32278;51.810;4.712;2022-10-31T07:39:17;47.50;;;18.35;;
46551;SDS011;32278;51.810;4.712;2022-10-31T07:41:43;52.13;;;18.13;;
46551;SDS011;32278;51.810;4.712;2022-10-31T07:44:08;50.35;;;17.77;;
46551;SDS011;32278;51.810;4.712;2022-10-31T07:46:34;68.90;;;20.20;;
46551;SDS011;32278;51.810;4.712;2022-10-31T07:49:00;74.80;;;18.98;;
46551;SDS011;32278;51.810;4.712;2022-10-31T07:51:25;69.22;;;18.75;;
46551;SDS011;32278;51.810;4.712;2022-10-31T07:53:51;53.38;;;17.77;;
46551;SDS011;32278;51.810;4.712;2022-10-31T07:56:17;44.13;;;17.98;;
46551;SDS011;32278;51.810;4.712;2022-10-31T07:58:42;44.38;;;18.42;;
46551;SDS011;32278;51.810;4.712;2022-10-31T08:01:08;38.83;;;16.90;;
46551;SDS011;32278;51.810;4.712;2022-10-31T08:03:33;39.25;;;16.48;;
46551;SDS011;32278;51.810;4.712;2022-10-31T08:05:59;40.22;;;17.17;;
46551;SDS011;32278;51.810;4.712;2022-10-31T08:08:25;42.63;;;17.48;;
46551;SDS011;32278;51.810;4.712;2022-10-31T08:10:53;37.80;;;18.17;;
46551;SDS011;32278;51.810;4.712;2022-10-31T08:13:19;30.73;;;15.82;;
46551;SDS011;32278;51.810;4.712;2022-10-31T08:15:44;43.70;;;16.77;;
46551;SDS011;32278;51.810;4.712;2022-10-31T08:18:14;30.08;;;15.73;;
46551;SDS011;32278;51.810;4.712;2022-10-31T08:20:41;39.95;;;17.65;;
46551;SDS011;32278;51.810;4.712;2022-10-31T08:23:08;30.88;;;16.35;;
46551;SDS011;32278;51.810;4.712;2022-10-31T08:25:35;38.22;;;16.52;;
46551;SDS011;32278;51.810;4.712;2022-10-31T08:28:02;33.45;;;16.70;;
46551;SDS011;32278;51.810;4.712;2022-10-31T08:30:29;32.75;;;16.58;;
46551;SDS011;32278;51.810;4.712;2022-10-31T08:33:01;31.67;;;16.15;;
46551;SDS011;32278;51.810;4.712;2022-10-31T08:35:29;30.30;;;15.40;;
46551;SDS011;32278;51.810;4.712;2022-10-31T08:37:56;26.98;;;14.52;;
46551;SDS011;32278;51.810;4.712;2022-10-31T08:40:22;33.33;;;16.02;;
46551;SDS011;32278;51.810;4.712;2022-10-31T08:42:55;35.83;;;15.85;;
46551;SDS011;32278;51.810;4.712;2022-10-31T08:45:25;27.80;;;14.13;;
46551;SDS011;32278;51.810;4.712;2022-10-31T08:47:50;30.83;;;14.73;;
46551;SDS011;32278;51.810;4.712;2022-10-31T08:50:16;34.53;;;16.27;;
46551;SDS011;32278;51.810;4.712;2022-10-31T08:52:42;30.02;;;15.25;;
46551;SDS011;32278;51.810;4.712;2022-10-31T08:55:08;32.30;;;16.88;;
46551;SDS011;32278;51.810;4.712;2022-10-31T08:57:33;36.63;;;15.18;;
46551;SDS011;32278;51.810;4.712;2022-10-31T08:59:59;32.58;;;16.05;;
46551;SDS011;32278;51.810;4.712;2022-10-31T09:02:24;24.92;;;14.00;;
46551;SDS011;32278;51.810;4.712;2022-10-31T09:04:50;29.58;;;15.27;;
46551;SDS011;32278;51.810;4.712;2022-10-31T09:07:15;28.67;;;15.45;;
46551;SDS011;32278;51.810;4.712;2022-10-31T09:09:41;29.88;;;15.00;;
46551;SDS011;32278;51.810;4.712;2022-10-31T09:12:07;34.88;;;15.68;;
46551;SDS011;32278;51.810;4.712;2022-10-31T09:14:32;36.47;;;14.25;;
46551;SDS011;32278;51.810;4.712;2022-10-31T09:16:58;27.95;;;15.15;;
46551;SDS011;32278;51.810;4.712;2022-10-31T09:19:23;32.60;;;14.20;;
46551;SDS011;32278;51.810;4.712;2022-10-31T09:21:51;33.25;;;15.30;;
46551;SDS011;32278;51.810;4.712;2022-10-31T09:24:18;34.60;;;15.27;;
46551;SDS011;32278;51.810;4.712;2022-10-31T09:26:43;31.17;;;15.38;;
46551;SDS011;32278;51.810;4.712;2022-10-31T09:29:09;28.48;;;15.75;;
46551;SDS011;32278;51.810;4.712;2022-10-31T09:31:35;33.20;;;15.70;;
46551;SDS011;32278;51.810;4.712;2022-10-31T09:34:01;31.17;;;15.27;;
46551;SDS011;32278;51.810;4.712;2022-10-31T09:36:26;32.15;;;15.60;;
46551;SDS011;32278;51.810;4.712;2022-10-31T09:38:52;28.77;;;15.25;;
46551;SDS011;32278;51.810;4.712;2022-10-31T09:41:34;30.52;;;15.07;;
46551;SDS011;32278;51.810;4.712;2022-10-31T09:52:21;33.75;;;15.70;;
46551;SDS011;32278;51.810;4.712;2022-10-31T09:54:56;32.33;;;15.43;;
46551;SDS011;32278;51.810;4.712;2022-10-31T09:57:27;34.97;;;16.27;;
46551;SDS011;32278;51.810;4.712;2022-10-31T09:59:55;31.92;;;15.88;;
46551;SDS011;32278;51.810;4.712;2022-10-31T10:05:10;31.08;;;15.38;;
46551;SDS011;32278;51.810;4.712;2022-10-31T10:10:26;29.33;;;15.88;;
46551;SDS011;32278;51.810;4.712;2022-10-31T10:22:21;27.98;;;14.77;;
46551;SDS011;32278;51.810;4.712;2022-10-31T10:24:27;35.72;;;16.30;;
46551;SDS011;32278;51.810;4.712;2022-10-31T10:27:00;34.17;;;17.13;;
46551;SDS011;32278;51.810;4.712;2022-10-31T10:32:29;33.50;;;16.05;;
46551;SDS011;32278;51.810;4.712;2022-10-31T10:35:07;31.08;;;15.63;;
46551;SDS011;32278;51.810;4.712;2022-10-31T10:37:38;28.77;;;14.38;;
46551;SDS011;32278;51.810;4.712;2022-10-31T10:45:39;30.48;;;15.20;;
46551;SDS011;32278;51.810;4.712;2022-10-31T10:48:30;27.40;;;15.50;;
46551;SDS011;32278;51.810;4.712;2022-10-31T10:51:20;31.95;;;14.32;;
46551;SDS011;32278;51.810;4.712;2022-10-31T10:59:16;32.60;;;15.13;;
46551;SDS011;32278;51.810;4.712;2022-10-31T11:01:45;37.88;;;16.27;;
46551;SDS011;32278;51.810;4.712;2022-10-31T11:04:20;31.60;;;14.75;;
46551;SDS011;32278;51.810;4.712;2022-10-31T11:06:56;33.92;;;15.38;;
46551;SDS011;32278;51.810;4.712;2022-10-31T11:09:22;36.03;;;14.40;;
46551;SDS011;32278;51.810;4.712;2022-10-31T11:11:48;27.63;;;15.05;;
46551;SDS011;32278;51.810;4.712;2022-10-31T11:14:14;28.80;;;15.80;;
46551;SDS011;32278;51.810;4.712;2022-10-31T11:16:45;28.90;;;16.60;;
46551;SDS011;32278;51.810;4.712;2022-10-31T11:19:24;33.45;;;16.92;;
46551;SDS011;32278;51.810;4.712;2022-10-31T11:21:52;38.08;;;18.42;;
46551;SDS011;32278;51.810;4.712;2022-10-31T11:24:19;35.65;;;18.15;;
46551;SDS011;32278;51.810;4.712;2022-10-31T11:26:47;37.95;;;15.88;;
46551;SDS011;32278;51.810;4.712;2022-10-31T11:29:15;43.47;;;19.02;;
46551;SDS011;32278;51.810;4.712;2022-10-31T11:31:45;41.70;;;18.70;;
46551;SDS011;32278;51.810;4.712;2022-10-31T11:34:21;37.08;;;18.48;;
46551;SDS011;32278;51.810;4.712;2022-10-31T11:36:54;39.70;;;20.02;;
46551;SDS011;32278;51.810;4.712;2022-10-31T11:39:28;45.60;;;17.92;;
46551;SDS011;32278;51.810;4.712;2022-10-31T11:41:54;44.45;;;19.40;;
46551;SDS011;32278;51.810;4.712;2022-10-31T11:44:25;40.95;;;20.02;;
46551;SDS011;32278;51.810;4.712;2022-10-31T11:46:54;40.55;;;20.05;;
46551;SDS011;32278;51.810;4.712;2022-10-31T11:49:30;41.13;;;19.02;;
46551;SDS011;32278;51.810;4.712;2022-10-31T11:52:36;45.25;;;20.08;;
46551;SDS011;32278;51.810;4.712;2022-10-31T11:54:57;42.42;;;19.92;;
46551;SDS011;32278;51.810;4.712;2022-10-31T11:57:29;47.50;;;22.27;;
46551;SDS011;32278;51.810;4.712;2022-10-31T12:00:02;40.88;;;20.20;;
46551;SDS011;32278;51.810;4.712;2022-10-31T12:02:29;51.05;;;22.13;;
46551;SDS011;32278;51.810;4.712;2022-10-31T12:07:36;48.30;;;22.10;;
46551;SDS011;32278;51.810;4.712;2022-10-31T12:10:04;55.15;;;22.15;;
46551;SDS011;32278;51.810;4.712;2022-10-31T12:12:52;52.30;;;21.67;;
46551;SDS011;32278;51.810;4.712;2022-10-31T12:15:34;53.13;;;21.50;;
46551;SDS011;32278;51.810;4.712;2022-10-31T12:21:17;44.38;;;21.05;;
46551;SDS011;32278;51.810;4.712;2022-10-31T12:38:22;45.35;;;20.27;;
46551;SDS011;32278;51.810;4.712;2022-10-31T12:43:56;50.90;;;20.70;;
46551;SDS011;32278;51.810;4.712;2022-10-31T12:46:35;47.13;;;19.98;;
46551;SDS011;32278;51.810;4.712;2022-10-31T12:57:11;52.60;;;21.77;;
46551;SDS011;32278;51.810;4.712;2022-10-31T12:59:48;48.92;;;21.20;;
46551;SDS011;32278;51.810;4.712;2022-10-31T13:04:58;49.05;;;22.05;;
46551;SDS011;32278;51.810;4.712;2022-10-31T13:07:30;49.55;;;22.52;;
46551;SDS011;32278;51.810;4.712;2022-10-31T13:13:07;55.70;;;22.95;;
46551;SDS011;32278;51.810;4.712;2022-10-31T13:21:09;49.85;;;21.55;;
46551;SDS011;32278;51.810;4.712;2022-10-31T13:26:08;59.30;;;23.55;;
46551;SDS011;32278;51.810;4.712;2022-10-31T13:31:13;49.88;;;23.10;;
46551;SDS011;32278;51.810;4.712;2022-10-31T13:33:40;45.90;;;21.77;;
46551;SDS011;32278;51.810;4.712;2022-10-31T13:36:32;55.33;;;24.05;;
46551;SDS011;32278;51.810;4.712;2022-10-31T13:41:58;48.25;;;24.38;;
46551;SDS011;32278;51.810;4.712;2022-10-31T13:44:27;51.63;;;23.63;;
46551;SDS011;32278;51.810;4.712;2022-10-31T13:46:53;58.55;;;24.30;;
46551;SDS011;32278;51.810;4.712;2022-10-31T13:54:39;56.83;;;25.88;;
46551;SDS011;32278;51.810;4.712;2022-10-31T13:57:19;59.63;;;25.15;;
46551;SDS011;32278;51.810;4.712;2022-10-31T14:02:30;63.45;;;25.52;;
46551;SDS011;32278;51.810;4.712;2022-10-31T14:05:01;51.35;;;25.85;;
46551;SDS011;32278;51.810;4.712;2022-10-31T14:07:30;52.60;;;26.10;;
46551;SDS011;32278;51.810;4.712;2022-10-31T14:09:59;60.25;;;25.33;;
46551;SDS011;32278;51.810;4.712;2022-10-31T14:12:29;57.78;;;26.55;;
46551;SDS011;32278;51.810;4.712;2022-10-31T14:15:26;57.50;;;25.27;;
46551;SDS011;32278;51.810;4.712;2022-10-31T14:17:56;60.88;;;25.80;;
46551;SDS011;32278;51.810;4.712;2022-10-31T14:20:45;62.33;;;29.10;;
46551;SDS011;32278;51.810;4.712;2022-10-31T14:28:56;52.88;;;26.20;;
46551;SDS011;32278;51.810;4.712;2022-10-31T14:33:54;56.25;;;26.83;;
46551;SDS011;32278;51.810;4.712;2022-10-31T14:36:25;50.55;;;24.98;;
46551;SDS011;32278;51.810;4.712;2022-10-31T14:39:29;60.72;;;27.05;;
46551;SDS011;32278;51.810;4.712;2022-10-31T14:42:16;50.65;;;26.38;;
46551;SDS011;32278;51.810;4.712;2022-10-31T14:48:02;60.55;;;26.83;;
46551;SDS011;32278;51.810;4.712;2022-10-31T14:50:41;57.08;;;26.67;;
46551;SDS011;32278;51.810;4.712;2022-10-31T14:55:39;53.28;;;25.42;;
46551;SDS011;32278;51.810;4.712;2022-10-31T14:58:12;60.65;;;27.48;;
46551;SDS011;32278;51.810;4.712;2022-10-31T15:00:43;64.63;;;28.67;;
46551;SDS011;32278;51.810;4.712;2022-10-31T15:03:11;62.58;;;27.27;;
46551;SDS011;32278;51.810;4.712;2022-10-31T15:05:42;55.35;;;28.02;;
46551;SDS011;32278;51.810;4.712;2022-10-31T15:10:57;64.10;;;28.05;;
46551;SDS011;32278;51.810;4.712;2022-10-31T15:13:23;53.45;;;26.92;;
46551;SDS011;32278;51.810;4.712;2022-10-31T15:15:52;61.70;;;26.60;;
46551;SDS011;32278;51.810;4.712;2022-10-31T15:18:23;55.70;;;26.90;;
46551;SDS011;32278;51.810;4.712;2022-10-31T15:20:51;61.17;;;26.88;;
46551;SDS011;32278;51.810;4.712;2022-10-31T15:23:22;51.17;;;27.02;;
46551;SDS011;32278;51.810;4.712;2022-10-31T15:26:05;63.65;;;27.08;;
46551;SDS011;32278;51.810;4.712;2022-10-31T15:28:31;52.63;;;24.67;;
46551;SDS011;32278;51.810;4.712;2022-10-31T15:30:57;49.97;;;25.20;;
46551;SDS011;32278;51.810;4.712;2022-10-31T15:33:29;46.95;;;24.48;;
46551;SDS011;32278;51.810;4.712;2022-10-31T15:35:57;49.03;;;23.33;;
46551;SDS011;32278;51.810;4.712;2022-10-31T15:38:24;47.90;;;22.30;;
46551;SDS011;32278;51.810;4.712;2022-10-31T15:40:52;51.22;;;23.30;;
46551;SDS011;32278;51.810;4.712;2022-10-31T15:43:33;49.60;;;22.13;;
46551;SDS011;32278;51.810;4.712;2022-10-31T15:46:01;45.88;;;23.38;;
46551;SDS011;32278;51.810;4.712;2022-10-31T15:48:29;42.53;;;20.83;;
46551;SDS011;32278;51.810;4.712;2022-10-31T15:50:57;48.17;;;21.48;;
46551;SDS011;32278;51.810;4.712;2022-10-31T15:55:53;37.80;;;19.90;;
46551;SDS011;32278;51.810;4.712;2022-10-31T15:58:23;45.08;;;21.02;;
46551;SDS011;32278;51.810;4.712;2022-10-31T16:00:57;39.95;;;18.73;;
46551;SDS011;32278;51.810;4.712;2022-10-31T16:03:26;41.40;;;18.52;;
46551;SDS011;32278;51.810;4.712;2022-10-31T16:05:54;38.75;;;19.67;;
46551;SDS011;32278;51.810;4.712;2022-10-31T16:11:15;46.90;;;17.73;;
46551;SDS011;32278;51.810;4.712;2022-10-31T16:13:52;37.42;;;16.92;;
46551;SDS011;32278;51.810;4.712;2022-10-31T16:16:24;46.13;;;18.08;;
46551;SDS011;32278;51.810;4.712;2022-10-31T16:18:51;37.55;;;16.95;;
46551;SDS011;32278;51.810;4.712;2022-10-31T16:21:25;34.42;;;16.80;;
46551;SDS011;32278;51.810;4.712;2022-10-31T16:23:56;29.48;;;15.52;;
46551;SDS011;32278;51.810;4.712;2022-10-31T16:26:25;32.17;;;15.23;;
46551;SDS011;32278;51.810;4.712;2022-10-31T16:28:53;33.17;;;15.32;;
46551;SDS011;32278;51.810;4.712;2022-10-31T16:31:30;36.47;;;15.88;;
46551;SDS011;32278;51.810;4.712;2022-10-31T16:34:13;30.13;;;15.30;;
46551;SDS011;32278;51.810;4.712;2022-10-31T16:36:42;28.80;;;14.30;;
46551;SDS011;32278;51.810;4.712;2022-10-31T16:39:08;37.20;;;16.02;;
46551;SDS011;32278;51.810;4.712;2022-10-31T16:41:35;30.75;;;14.50;;
46551;SDS011;32278;51.810;4.712;2022-10-31T16:46:46;35.45;;;13.85;;
46551;SDS011;32278;51.810;4.712;2022-10-31T16:49:12;38.97;;;15.30;;
46551;SDS011;32278;51.810;4.712;2022-10-31T16:51:40;34.20;;;15.07;;
46551;SDS011;32278;51.810;4.712;2022-10-31T16:54:06;28.10;;;14.48;;
46551;SDS011;32278;51.810;4.712;2022-10-31T16:56:34;32.08;;;15.43;;
46551;SDS011;32278;51.810;4.712;2022-10-31T16:59:02;41.47;;;14.73;;
46551;SDS011;32278;51.810;4.712;2022-10-31T17:01:31;31.27;;;15.23;;
46551;SDS011;32278;51.810;4.712;2022-10-31T17:04:00;26.17;;;13.80;;
46551;SDS011;32278;51.810;4.712;2022-10-31T17:06:25;28.52;;;13.35;;
46551;SDS011;32278;51.810;4.712;2022-10-31T17:08:52;35.25;;;13.98;;
46551;SDS011;32278;51.810;4.712;2022-10-31T17:11:18;25.25;;;13.20;;